createdAt,value
2023-03-02T00:01:10.618Z,30.10
2023-03-02T00:03:41.703Z,29.13
2023-03-02T00:06:10.062Z,29.60
2023-03-02T00:08:39.326Z,29.83
2023-03-02T00:11:06.984Z,30.55
2023-03-02T00:13:36.345Z,29.38
2023-03-02T00:16:04.438Z,29.02
2023-03-02T00:18:32.025Z,29.33
2023-03-02T00:20:59.241Z,29.20
2023-03-02T00:23:26.687Z,30.08
2023-03-02T00:25:53.954Z,28.60
2023-03-02T00:28:21.558Z,27.85
2023-03-02T00:30:48.644Z,26.95
2023-03-02T00:33:15.850Z,30.33
2023-03-02T00:35:43.468Z,29.73
2023-03-02T00:38:10.733Z,29.60
2023-03-02T00:40:37.920Z,30.05
2023-03-02T00:43:05.203Z,27.98
2023-03-02T00:45:32.405Z,27.85
2023-03-02T00:47:59.653Z,27.52
2023-03-02T00:50:26.809Z,27.60
2023-03-02T00:52:53.965Z,26.40
2023-03-02T00:55:21.906Z,28.17
2023-03-02T00:57:55.338Z,28.05
2023-03-02T01:00:28.945Z,28.23
2023-03-02T01:03:00.301Z,28.75
2023-03-02T01:05:28.254Z,25.98
2023-03-02T01:07:55.466Z,27.67
2023-03-02T01:10:22.879Z,26.05
2023-03-02T01:12:50.255Z,26.10
2023-03-02T01:15:17.408Z,27.60
2023-03-02T01:17:44.608Z,25.63
2023-03-02T01:20:13.049Z,23.75
2023-03-02T01:22:40.224Z,24.70
2023-03-02T01:25:07.815Z,25.23
2023-03-02T01:27:34.988Z,24.48
2023-03-02T01:30:02.349Z,25.13
2023-03-02T01:32:32.060Z,24.73
2023-03-02T01:34:59.238Z,24.45
2023-03-02T01:37:26.632Z,25.17
2023-03-02T01:39:53.987Z,25.42
2023-03-02T01:42:21.102Z,24.60
2023-03-02T01:44:51.279Z,25.63
2023-03-02T01:47:28.648Z,23.27
2023-03-02T01:50:16.026Z,24.83
2023-03-02T01:52:44.053Z,24.67
2023-03-02T01:55:13.823Z,24.50
2023-03-02T01:57:47.085Z,27.25
2023-03-02T02:00:19.598Z,23.65
2023-03-02T02:02:48.111Z,23.50
2023-03-02T02:05:21.573Z,24.20
2023-03-02T02:07:49.819Z,25.02
2023-03-02T02:10:18.417Z,24.50
2023-03-02T02:12:45.882Z,24.83
2023-03-02T02:15:13.326Z,24.52
2023-03-02T02:17:41.332Z,24.85
2023-03-02T02:20:28.437Z,24.50
2023-03-02T02:23:16.187Z,24.40
2023-03-02T02:25:55.542Z,22.88
2023-03-02T02:28:29.405Z,23.52
2023-03-02T02:31:10.024Z,23.52
2023-03-02T02:33:39.432Z,24.77
2023-03-02T02:36:10.333Z,25.15
2023-03-02T02:38:41.550Z,26.08
2023-03-02T02:41:14.945Z,23.65
2023-03-02T02:43:42.569Z,23.95
2023-03-02T02:46:11.971Z,24.80
2023-03-02T02:48:39.668Z,23.35
2023-03-02T02:51:09.243Z,23.98
2023-03-02T02:53:48.673Z,24.25
2023-03-02T02:56:17.713Z,24.63
2023-03-02T02:58:52.230Z,23.75
2023-03-02T03:01:26.648Z,24.38
2023-03-02T03:04:00.937Z,24.75
2023-03-02T03:06:38.537Z,25.33
2023-03-02T03:09:08.244Z,25.35
2023-03-02T03:11:43.526Z,24.52
2023-03-02T03:14:14.481Z,23.92
2023-03-02T03:16:47.332Z,25.55
2023-03-02T03:19:20.127Z,26.23
2023-03-02T03:21:51.370Z,25.00
2023-03-02T03:24:20.646Z,23.55
2023-03-02T03:26:49.675Z,23.67
2023-03-02T03:29:19.342Z,24.70
2023-03-02T03:31:48.054Z,23.08
2023-03-02T03:34:15.310Z,23.35
2023-03-02T03:36:43.721Z,24.13
2023-03-02T03:39:12.197Z,24.65
2023-03-02T03:41:40.659Z,23.17
2023-03-02T03:44:09.315Z,24.48
2023-03-02T03:46:38.472Z,24.17
2023-03-02T03:49:06.254Z,24.65
2023-03-02T03:51:35.480Z,24.48
2023-03-02T03:54:08.420Z,23.52
2023-03-02T03:56:43.174Z,24.60
2023-03-02T03:59:14.598Z,24.15
2023-03-02T04:01:51.294Z,24.60
2023-03-02T04:04:35.919Z,23.00
2023-03-02T04:07:08.382Z,23.70
2023-03-02T04:09:38.141Z,24.02
2023-03-02T04:12:08.377Z,24.63
2023-03-02T04:14:36.407Z,23.45
2023-03-02T04:17:05.535Z,24.67
2023-03-02T04:19:35.621Z,22.98
2023-03-02T04:22:04.630Z,24.88
2023-03-02T04:24:33.868Z,24.73
2023-03-02T04:27:03.679Z,24.45
2023-03-02T04:29:32.511Z,23.42
2023-03-02T04:32:01.791Z,24.75
2023-03-02T04:34:31.364Z,24.40
2023-03-02T04:36:58.886Z,23.63
2023-03-02T04:39:26.777Z,24.20
2023-03-02T04:41:54.301Z,22.17
2023-03-02T04:44:21.992Z,23.58
2023-03-02T04:46:49.654Z,23.48
2023-03-02T04:49:18.239Z,23.63
2023-03-02T04:51:47.720Z,23.75
2023-03-02T04:54:16.461Z,24.15
2023-03-02T04:56:43.652Z,23.95
2023-03-02T04:59:10.713Z,24.63
2023-03-02T05:01:38.052Z,22.15
2023-03-02T05:04:06.198Z,22.60
2023-03-02T05:06:34.559Z,22.65
2023-03-02T05:09:02.169Z,22.77
2023-03-02T05:11:30.107Z,23.48
2023-03-02T05:14:02.199Z,23.45
2023-03-02T05:16:33.112Z,23.92
2023-03-02T05:19:03.396Z,24.90
2023-03-02T05:21:30.627Z,24.63
2023-03-02T05:23:58.841Z,24.95
2023-03-02T05:26:26.106Z,23.60
2023-03-02T05:28:54.185Z,22.35
2023-03-02T05:31:25.032Z,22.92
2023-03-02T05:33:52.511Z,25.08
2023-03-02T05:36:22.873Z,21.95
2023-03-02T05:38:52.487Z,20.85
2023-03-02T05:41:20.315Z,20.58
2023-03-02T05:43:48.047Z,20.35
2023-03-02T05:46:16.991Z,20.85
2023-03-02T05:48:44.382Z,20.20
2023-03-02T05:51:11.546Z,21.20
2023-03-02T05:53:38.861Z,22.75
2023-03-02T05:56:07.381Z,21.42
2023-03-02T05:58:34.483Z,24.83
2023-03-02T06:01:01.956Z,25.05
2023-03-02T06:03:29.249Z,23.25
2023-03-02T06:05:56.545Z,21.60
2023-03-02T06:08:23.720Z,19.75
2023-03-02T06:10:51.036Z,19.92
2023-03-02T06:13:18.240Z,19.20
2023-03-02T06:15:46.089Z,20.50
2023-03-02T06:18:13.913Z,19.50
2023-03-02T06:20:42.253Z,20.80
2023-03-02T06:23:09.533Z,20.65
2023-03-02T06:25:41.419Z,20.10
2023-03-02T06:28:09.974Z,21.30
2023-03-02T06:30:37.270Z,21.27
2023-03-02T06:33:04.455Z,20.95
2023-03-02T06:35:31.915Z,21.20
2023-03-02T06:37:59.214Z,20.77
2023-03-02T06:40:26.329Z,22.60
2023-03-02T06:42:53.488Z,22.75
2023-03-02T06:45:21.385Z,21.45
2023-03-02T06:47:49.126Z,21.48
2023-03-02T06:50:16.361Z,20.23
2023-03-02T06:52:43.489Z,21.55
2023-03-02T06:55:11.132Z,22.45
2023-03-02T06:57:38.721Z,21.73
2023-03-02T07:00:10.447Z,22.27
2023-03-02T07:02:38.443Z,21.08
2023-03-02T07:05:07.534Z,22.95
2023-03-02T07:07:35.476Z,21.27
2023-03-02T07:10:02.972Z,20.73
2023-03-02T07:12:30.347Z,21.45
2023-03-02T07:14:57.560Z,22.92
2023-03-02T07:17:25.260Z,22.50
2023-03-02T07:19:52.774Z,21.42
2023-03-02T07:22:20.690Z,22.20
2023-03-02T07:24:47.892Z,21.85
2023-03-02T07:27:15.079Z,19.48
2023-03-02T07:29:42.877Z,20.13
2023-03-02T07:32:12.677Z,19.20
2023-03-02T07:34:40.204Z,20.77
2023-03-02T07:37:07.534Z,19.45
2023-03-02T07:39:35.051Z,20.13
2023-03-02T07:42:04.822Z,21.17
2023-03-02T07:44:32.023Z,18.33
2023-03-02T07:46:59.208Z,18.60
2023-03-02T07:49:26.468Z,18.38
2023-03-02T07:51:53.736Z,18.88
2023-03-02T07:54:20.830Z,18.05
2023-03-02T07:56:48.116Z,20.92
2023-03-02T07:59:15.619Z,18.60
2023-03-02T08:01:43.514Z,18.80
2023-03-02T08:04:10.678Z,18.77
2023-03-02T08:06:37.902Z,19.08
2023-03-02T08:09:05.320Z,18.20
2023-03-02T08:11:32.699Z,20.65
2023-03-02T08:14:01.889Z,19.40
2023-03-02T08:16:29.565Z,17.65
2023-03-02T08:18:59.643Z,18.38
2023-03-02T08:21:28.324Z,17.75
2023-03-02T08:23:55.508Z,18.20
2023-03-02T08:26:22.946Z,19.55
2023-03-02T08:28:50.262Z,18.67
2023-03-02T08:31:17.588Z,18.63
2023-03-02T08:33:46.143Z,17.83
2023-03-02T08:36:17.530Z,19.88
2023-03-02T08:38:45.873Z,18.33
2023-03-02T08:41:16.345Z,18.92
2023-03-02T08:43:44.434Z,19.52
2023-03-02T08:46:13.653Z,19.25
2023-03-02T08:48:41.461Z,20.13
2023-03-02T08:51:13.045Z,20.13
2023-03-02T08:53:43.484Z,17.75
2023-03-02T08:56:25.274Z,18.08
2023-03-02T08:58:54.287Z,18.15
2023-03-02T09:01:24.818Z,18.85
2023-03-02T09:03:53.047Z,19.35
2023-03-02T09:06:21.184Z,18.50
2023-03-02T09:08:49.012Z,18.42
2023-03-02T09:11:16.658Z,19.75
2023-03-02T09:13:44.186Z,18.38
2023-03-02T09:16:12.901Z,19.75
2023-03-02T09:18:40.709Z,19.02
2023-03-02T09:21:08.490Z,18.05
2023-03-02T09:23:36.715Z,18.48
2023-03-02T09:26:05.128Z,18.42
2023-03-02T09:28:33.336Z,20.50
2023-03-02T09:31:04.944Z,18.60
2023-03-02T09:33:33.423Z,19.45
2023-03-02T09:36:01.595Z,18.10
2023-03-02T09:38:29.241Z,17.30
2023-03-02T09:40:57.489Z,18.20
2023-03-02T09:44:04.928Z,16.92
2023-03-02T09:46:52.275Z,17.88
2023-03-02T09:49:26.104Z,17.95
2023-03-02T09:52:21.328Z,18.35
2023-03-02T09:54:48.582Z,19.30
2023-03-02T09:57:38.841Z,18.08
2023-03-02T10:00:19.506Z,21.48
2023-03-02T10:02:49.913Z,19.17
2023-03-02T10:05:23.153Z,21.02
2023-03-02T10:07:50.488Z,18.83
2023-03-02T10:10:18.601Z,19.40
2023-03-02T10:13:25.401Z,18.27
2023-03-02T10:16:06.962Z,18.67
2023-03-02T10:19:03.137Z,17.58
2023-03-02T10:21:43.372Z,18.25
2023-03-02T10:24:53.339Z,18.88
2023-03-02T10:27:43.257Z,17.13
2023-03-02T10:30:18.367Z,17.85
2023-03-02T10:32:49.756Z,17.92
2023-03-02T10:35:23.805Z,17.85
2023-03-02T10:37:58.551Z,17.83
2023-03-02T10:40:49.069Z,17.25
2023-03-02T10:43:19.196Z,17.98
2023-03-02T10:45:57.778Z,17.75
2023-03-02T10:48:25.419Z,17.52
2023-03-02T10:50:56.006Z,17.13
2023-03-02T10:53:23.554Z,17.02
2023-03-02T10:55:53.124Z,17.80
2023-03-02T10:58:35.912Z,17.50
2023-03-02T11:01:07.321Z,18.98
2023-03-02T11:03:35.027Z,17.83
2023-03-02T11:06:20.444Z,17.75
2023-03-02T11:08:59.306Z,18.20
2023-03-02T11:11:27.028Z,16.65
2023-03-02T11:13:56.453Z,18.35
2023-03-02T11:16:28.670Z,17.10
2023-03-02T11:19:00.757Z,17.92
2023-03-02T11:21:31.009Z,17.23
2023-03-02T11:24:02.528Z,16.58
2023-03-02T11:26:37.654Z,18.17
2023-03-02T11:29:20.940Z,17.00
2023-03-02T11:31:59.102Z,17.77
2023-03-02T11:34:39.171Z,17.67
2023-03-02T11:37:44.501Z,17.05
2023-03-02T11:40:34.799Z,16.90
2023-03-02T11:43:05.068Z,17.60
2023-03-02T11:45:37.593Z,17.35
2023-03-02T11:48:08.455Z,17.65
2023-03-02T11:50:45.810Z,16.23
2023-03-02T11:53:17.391Z,17.10
2023-03-02T11:55:49.584Z,16.38
2023-03-02T11:58:21.246Z,15.50
2023-03-02T12:00:50.042Z,15.15
2023-03-02T12:03:17.071Z,15.52
2023-03-02T12:05:47.742Z,14.73
2023-03-02T12:08:19.155Z,14.82
2023-03-02T12:11:22.212Z,14.23
2023-03-02T12:13:49.530Z,14.35
2023-03-02T12:16:41.113Z,14.43
2023-03-02T12:19:24.218Z,15.05
2023-03-02T12:22:10.714Z,14.00
2023-03-02T12:24:40.413Z,14.38
2023-03-02T12:27:16.689Z,13.90
2023-03-02T12:29:50.413Z,14.52
2023-03-02T12:32:19.067Z,13.43
2023-03-02T12:34:56.832Z,14.48
2023-03-02T12:37:42.638Z,14.57
2023-03-02T12:40:37.642Z,14.15
2023-03-02T12:43:27.825Z,14.38
2023-03-02T12:46:18.300Z,14.98
2023-03-02T12:48:47.334Z,13.40
2023-03-02T12:51:24.820Z,14.23
2023-03-02T12:54:16.336Z,13.35
2023-03-02T12:56:43.800Z,14.07
2023-03-02T12:59:22.704Z,14.00
2023-03-02T13:01:50.033Z,13.98
2023-03-02T13:04:27.187Z,14.55
2023-03-02T13:06:55.558Z,14.60
2023-03-02T13:09:23.900Z,13.88
2023-03-02T13:11:54.780Z,14.10
2023-03-02T13:14:27.458Z,13.73
2023-03-02T13:16:59.655Z,13.07
2023-03-02T13:19:27.919Z,13.77
2023-03-02T13:21:55.232Z,12.60
2023-03-02T13:24:28.663Z,13.07
2023-03-02T13:26:58.478Z,13.32
2023-03-02T13:29:28.247Z,12.77
2023-03-02T13:31:55.524Z,13.95
2023-03-02T13:34:24.195Z,12.82
2023-03-02T13:36:51.967Z,12.68
2023-03-02T13:39:23.151Z,12.45
2023-03-02T13:42:08.977Z,10.80
2023-03-02T13:44:36.518Z,11.68
2023-03-02T13:47:04.153Z,11.40
2023-03-02T13:49:34.529Z,11.20
2023-03-02T13:52:08.140Z,11.13
2023-03-02T13:54:37.815Z,11.35
2023-03-02T13:57:06.410Z,11.30
2023-03-02T13:59:36.760Z,11.23
2023-03-02T14:02:12.144Z,11.60
2023-03-02T14:04:39.438Z,10.88
2023-03-02T14:07:07.193Z,10.73
2023-03-02T14:09:34.285Z,10.63
2023-03-02T14:12:01.647Z,11.82
2023-03-02T14:14:32.534Z,10.95
2023-03-02T14:16:59.869Z,11.63
2023-03-02T14:19:27.024Z,11.75
2023-03-02T14:21:54.106Z,11.05
2023-03-02T14:24:21.754Z,11.30
2023-03-02T14:26:49.939Z,12.25
2023-03-02T14:29:34.761Z,12.07
2023-03-02T14:34:31.877Z,12.07
2023-03-02T14:37:02.968Z,11.50
2023-03-02T14:39:35.844Z,12.00
2023-03-02T14:42:03.518Z,11.48
2023-03-02T14:44:30.719Z,11.25
2023-03-02T14:46:58.345Z,12.40
2023-03-02T14:49:25.853Z,11.90
2023-03-02T14:52:05.341Z,11.35
2023-03-02T14:54:41.029Z,11.43
2023-03-02T14:57:18.350Z,10.85
2023-03-02T14:59:46.013Z,10.88
2023-03-02T15:02:24.938Z,11.20
2023-03-02T15:04:56.312Z,11.98
2023-03-02T15:07:25.905Z,11.85
2023-03-02T15:09:53.190Z,12.02
2023-03-02T15:12:20.276Z,12.23
2023-03-02T15:14:47.538Z,12.00
2023-03-02T15:17:15.155Z,12.82
2023-03-02T15:19:42.484Z,12.45
2023-03-02T15:22:10.207Z,12.18
2023-03-02T15:24:37.625Z,12.65
2023-03-02T15:27:05.103Z,11.88
2023-03-02T15:29:32.283Z,13.73
2023-03-02T15:31:59.583Z,13.48
2023-03-02T15:34:26.930Z,14.25
2023-03-02T15:36:53.941Z,14.07
2023-03-02T15:39:21.561Z,14.82
2023-03-02T15:41:49.114Z,14.32
2023-03-02T15:44:22.451Z,14.77
2023-03-02T15:46:51.930Z,14.15
2023-03-02T15:49:23.103Z,14.35
2023-03-02T15:51:52.167Z,15.38
2023-03-02T15:54:19.691Z,14.73
2023-03-02T15:56:52.212Z,14.35
2023-03-02T15:59:22.038Z,14.23
2023-03-02T16:01:49.299Z,14.50
2023-03-02T16:04:16.921Z,14.10
2023-03-02T16:06:45.229Z,15.25
2023-03-02T16:09:12.831Z,14.10
2023-03-02T16:11:40.251Z,13.70
2023-03-02T16:14:07.531Z,13.90
2023-03-02T16:16:34.953Z,14.52
2023-03-02T16:19:02.472Z,14.18
2023-03-02T16:21:29.601Z,14.68
2023-03-02T16:24:04.752Z,14.85
2023-03-02T16:26:34.141Z,13.50
2023-03-02T16:29:01.904Z,13.48
2023-03-02T16:31:32.503Z,14.02
2023-03-02T16:34:04.058Z,12.90
2023-03-02T16:36:31.253Z,12.77
2023-03-02T16:39:02.644Z,11.77
2023-03-02T16:41:29.897Z,12.07
2023-03-02T16:43:58.831Z,13.23
2023-03-02T16:46:28.954Z,12.57
2023-03-02T16:48:58.039Z,13.15
2023-03-02T16:51:25.479Z,12.38
2023-03-02T16:53:53.188Z,13.82
2023-03-02T16:56:21.119Z,13.30
2023-03-02T16:58:48.659Z,12.95
2023-03-02T17:01:20.502Z,13.13
2023-03-02T17:03:50.267Z,12.95
2023-03-02T17:06:21.093Z,12.75
2023-03-02T17:08:49.094Z,12.48
2023-03-02T17:11:16.471Z,12.13
2023-03-02T17:13:44.223Z,13.05
2023-03-02T17:16:11.516Z,12.40
2023-03-02T17:18:39.176Z,13.00
2023-03-02T17:21:06.753Z,13.05
2023-03-02T17:23:33.970Z,16.13
2023-03-02T17:26:01.506Z,15.95
2023-03-02T17:28:28.723Z,16.85
2023-03-02T17:30:55.868Z,17.02
2023-03-02T17:33:23.702Z,16.48
2023-03-02T17:35:51.650Z,16.48
2023-03-02T17:38:19.207Z,17.48
2023-03-02T17:40:47.063Z,17.48
2023-03-02T17:43:14.234Z,18.23
2023-03-02T17:45:41.665Z,18.58
2023-03-02T17:48:08.865Z,18.83
2023-03-02T17:50:37.233Z,19.10
2023-03-02T17:53:04.815Z,19.58
2023-03-02T17:55:32.279Z,19.00
2023-03-02T17:58:01.659Z,18.40
2023-03-02T18:00:29.354Z,17.35
2023-03-02T18:02:58.135Z,16.48
2023-03-02T18:05:26.619Z,17.48
2023-03-02T18:07:54.694Z,17.15
2023-03-02T18:10:22.272Z,16.67
2023-03-02T18:12:52.297Z,16.52
2023-03-02T18:15:20.843Z,16.90
2023-03-02T18:17:47.981Z,16.85
2023-03-02T18:20:15.130Z,15.00
2023-03-02T18:22:42.871Z,16.42
2023-03-02T18:25:11.010Z,16.98
2023-03-02T18:27:38.494Z,16.90
2023-03-02T18:30:06.173Z,15.98
2023-03-02T18:32:33.984Z,17.67
2023-03-02T18:35:01.136Z,17.15
2023-03-02T18:37:28.632Z,16.85
2023-03-02T18:39:56.190Z,15.95
2023-03-02T18:42:23.877Z,16.80
2023-03-02T18:44:52.011Z,16.63
2023-03-02T18:47:19.288Z,16.73
2023-03-02T18:49:47.764Z,17.33
2023-03-02T18:52:17.004Z,18.35
2023-03-02T18:54:46.823Z,17.63
2023-03-02T18:57:14.652Z,17.65
2023-03-02T18:59:42.709Z,18.30
2023-03-02T19:02:14.037Z,17.45
2023-03-02T19:04:43.009Z,17.85
2023-03-02T19:07:10.340Z,18.42
2023-03-02T19:09:37.721Z,17.23
2023-03-02T19:12:05.341Z,19.05
2023-03-02T19:14:32.919Z,19.42
2023-03-02T19:17:00.029Z,18.90
2023-03-02T19:19:28.385Z,18.63
2023-03-02T19:21:55.570Z,18.50
2023-03-02T19:24:22.853Z,19.67
2023-03-02T19:26:51.002Z,17.60
2023-03-02T19:29:18.970Z,18.92
2023-03-02T19:31:46.130Z,20.02
2023-03-02T19:34:13.741Z,19.77
2023-03-02T19:36:41.039Z,20.08
2023-03-02T19:39:08.393Z,21.13
2023-03-02T19:41:35.823Z,20.27
2023-03-02T19:44:03.415Z,19.65
2023-03-02T19:46:31.014Z,21.27
2023-03-02T19:48:58.511Z,20.02
2023-03-02T19:51:25.955Z,20.05
2023-03-02T19:53:53.376Z,19.48
2023-03-02T19:56:21.689Z,21.45
2023-03-02T19:58:53.457Z,21.33
2023-03-02T20:01:22.242Z,19.60
2023-03-02T20:03:51.891Z,21.42
2023-03-02T20:06:21.690Z,19.88
2023-03-02T20:08:50.268Z,20.70
2023-03-02T20:11:18.897Z,21.70
2023-03-02T20:13:46.137Z,19.70
2023-03-02T20:16:14.584Z,20.10
2023-03-02T20:18:42.367Z,20.55
2023-03-02T20:21:09.936Z,20.05
2023-03-02T20:23:37.820Z,21.50
2023-03-02T20:26:06.391Z,22.67
2023-03-02T20:28:34.159Z,23.50
2023-03-02T20:31:09.277Z,22.95
2023-03-02T20:33:41.945Z,23.73
2023-03-02T20:36:09.870Z,20.95
2023-03-02T20:38:41.901Z,22.90
2023-03-02T20:41:11.817Z,20.50
2023-03-02T20:43:43.322Z,21.77
2023-03-02T20:46:17.748Z,21.95
2023-03-02T20:48:45.302Z,21.65
2023-03-02T20:51:12.878Z,25.92
2023-03-02T20:53:40.873Z,23.88
2023-03-02T20:56:08.133Z,24.05
2023-03-02T20:58:38.178Z,24.38
2023-03-02T21:01:05.946Z,22.73
2023-03-02T21:03:33.797Z,21.90
2023-03-02T21:06:01.512Z,23.10
2023-03-02T21:08:28.869Z,22.75
2023-03-02T21:10:56.969Z,23.30
2023-03-02T21:13:24.414Z,24.52
2023-03-02T21:15:52.746Z,25.08
2023-03-02T21:18:20.832Z,24.50
2023-03-02T21:20:48.504Z,23.40
2023-03-02T21:23:15.922Z,23.30
2023-03-02T21:25:45.025Z,22.88
2023-03-02T21:28:12.241Z,24.23
2023-03-02T21:30:41.417Z,23.35
2023-03-02T21:33:09.696Z,23.48
2023-03-02T21:35:38.614Z,22.60
2023-03-02T21:38:06.650Z,23.83
2023-03-02T21:40:41.193Z,22.23
2023-03-02T21:43:08.879Z,21.80
2023-03-02T21:45:37.514Z,20.55
2023-03-02T21:48:06.192Z,20.75
2023-03-02T21:50:36.886Z,20.35
2023-03-02T21:53:04.986Z,21.75
2023-03-02T21:55:34.879Z,20.75
2023-03-02T21:58:02.655Z,22.05
2023-03-02T22:00:33.985Z,21.13
2023-03-02T22:03:02.054Z,20.98
2023-03-02T22:05:30.530Z,21.02
2023-03-02T22:07:58.848Z,21.88
2023-03-02T22:10:47.594Z,20.60
2023-03-02T22:13:17.795Z,21.50
2023-03-02T22:15:46.481Z,21.70
2023-03-02T22:18:18.973Z,21.55
2023-03-02T22:20:49.470Z,22.40
2023-03-02T22:23:21.403Z,21.35
2023-03-02T22:25:52.119Z,20.98
2023-03-02T22:28:22.224Z,21.08
2023-03-02T22:30:52.010Z,21.30
2023-03-02T22:33:23.191Z,22.48
2023-03-02T22:35:53.159Z,22.52
2023-03-02T22:38:26.176Z,22.05
2023-03-02T22:40:55.371Z,22.00
2023-03-02T22:43:34.255Z,21.50
2023-03-02T22:46:10.818Z,20.77
2023-03-02T22:48:38.721Z,22.10
2023-03-02T22:51:15.544Z,22.02
2023-03-02T22:53:49.366Z,22.60
2023-03-02T22:56:38.412Z,21.60
2023-03-02T22:59:26.906Z,22.73
2023-03-02T23:02:00.431Z,23.83
2023-03-02T23:04:33.924Z,24.10
2023-03-02T23:07:03.744Z,22.90
2023-03-02T23:09:34.602Z,22.38
2023-03-02T23:12:13.993Z,22.35
2023-03-02T23:14:47.858Z,22.85
2023-03-02T23:17:18.209Z,23.17
2023-03-02T23:19:45.880Z,21.55
2023-03-02T23:22:13.702Z,21.77
2023-03-02T23:24:42.859Z,23.25
2023-03-02T23:27:11.693Z,23.10
2023-03-02T23:29:38.978Z,23.95
2023-03-02T23:32:06.482Z,22.95
2023-03-02T23:34:33.995Z,24.92
2023-03-02T23:37:01.525Z,23.98
2023-03-02T23:39:28.765Z,23.35
2023-03-02T23:41:56.296Z,24.92
2023-03-02T23:44:23.441Z,22.80
2023-03-02T23:46:52.121Z,23.73
2023-03-02T23:49:19.709Z,22.50
2023-03-02T23:51:47.445Z,24.20
2023-03-02T23:54:15.351Z,24.23
2023-03-02T23:56:42.706Z,23.30
2023-03-02T23:59:10.173Z,23.20
